Weather at Herschel Island Field

Public forecast

Using degrees Celsius for public forecast. Weather courtesy of forecast.io.

Closest aviation weather report (METAR) to Herschel Island Field

Closest report is Barter Island Long Range Radar Station Airport, 99.3 nm (183.9 km) WNW. Retrieved 2021/05/14 19:39 UTC (0 seconds ago):

PABA 141939Z AUTO 09012KT 3SM BR OVC004 M05/M06 A3008 RMK AO2 FZRANO

Closest aviation forecast (TAF) to Herschel Island Field

Closest forecast is Old Crow Airport, 119.9 nm (222.0 km) S. Retrieved 2021/05/14 19:00 UTC (31 minutes ago):

TAF CYOC 141840Z 1419/1501 06005KT P6SM FEW030 RMK NXT FCST WILL BE ISSUED AT 151445Z